Flight Track Log - Related Links

Times and Time Zones

All times are in EDT time to prevent confusion due to time zone crossing. See the AAL297 flight status page for this flight to view local times or setup timezone preferences in your user account.

Time Position Orientation Groundspeed Altitude Reporting Facility
EDT Latitude Longitude Course Direction KTS MPH feet Rate Location/Type
Thu 03:24:07 PM 32.9200 -97.0500 North 164 189 2,100  Level FlightAware ADS-B
Thu 03:24:12 PM 32.9220 -97.0500 360° North 169 194 2,100 1,440 Level FlightAware ADS-B
Thu 03:24:32 PM 32.9390 -97.0550 346° North 197 227 2,700 2,057 Climbing FlightAware ADS-B
Thu 03:24:47 PM 32.9530 -97.0610 340° North 212 244 3,300 2,267 Climbing FlightAware ADS-B
Thu 03:25:17 PM 32.9830 -97.0720 343° North 238 274 4,400 2,100 Climbing FlightAware ADS-B
Thu 03:25:27 PM 32.9930 -97.0780 333° Northwest 251 289 4,700 2,160 Climbing FlightAware ADS-B
Thu 03:25:42 PM 33.0030 -97.0930 308° West 261 300 5,300 2,600 Climbing FlightAware ADS-B
Thu 03:25:57 PM 33.0070 -97.1160 282° West 268 308 6,000 2,667 Climbing FlightAware ADS-B
Thu 03:26:27 PM 33.0040 -97.1600 265° West 273 314 7,300 2,727 Climbing FlightAware ADS-B
Thu 03:26:52 PM 32.9990 -97.2000 262° West 278 320 8,500 1,527 Climbing FlightAware ADS-B
Thu 03:27:22 PM 32.9900 -97.2450 257° West 273 314 8,700 700 Climbing FlightAware ADS-B
Thu 03:27:52 PM 32.9710 -97.2820 239° Southwest 281 323 9,200 1,629 Climbing FlightAware ADS-B
Thu 03:28:32 PM 32.9430 -97.3350 238° Southwest 302 348 10,600 1,725 Climbing FlightAware ADS-B
Thu 03:29:12 PM 32.9090 -97.3960 236° Southwest 338 389 11,500 2,047 Climbing FlightAware ADS-B
Thu 03:29:57 PM 32.8720 -97.4620 236° Southwest 345 397 13,500 3,176 Climbing FlightAware ADS-B
Thu 03:30:37 PM 32.8360 -97.5290 237° Southwest 340 391 16,000 3,150 Climbing FlightAware ADS-B
Thu 03:31:17 PM 32.8010 -97.5910 236° Southwest 349 402 17,700 2,471 Climbing FlightAware ADS-B
Thu 03:32:02 PM 32.7620 -97.6610 236° Southwest 358 412 19,500 2,329 Climbing FlightAware ADS-B
Thu 03:32:42 PM 32.7290 -97.7270 239° Southwest 364 419 21,000 1,976 Climbing FlightAware ADS-B
Thu 03:33:27 PM 32.7220 -97.8180 265° West 385 443 22,300 1,412 Climbing FlightAware ADS-B
Thu 03:34:07 PM 32.7220 -97.9030 270° West 398 458 23,000 525 Climbing FlightAware ADS-B
Thu 03:34:47 PM 32.7220 -97.9900 270° West 398 458 23,000 1,059 Level FlightAware ADS-B
Thu 03:35:32 PM 32.7110 -98.0960 263° West 400 460 24,500 1,835 Climbing FlightAware ADS-B
Thu 03:36:12 PM 32.7010 -98.1710 261° West 406 467 25,600 1,835 Climbing FlightAware ADS-B
Thu 03:36:57 PM 32.6880 -98.2780 262° West 413 475 27,100 1,835 Climbing FlightAware ADS-B
Thu 03:37:37 PM 32.6770 -98.3670 262° West 419 482 28,200 1,800 Climbing FlightAware ADS-B
Thu 03:38:17 PM 32.6650 -98.4580 261° West 420 483 29,500 1,765 Climbing FlightAware ADS-B
Thu 03:39:02 PM 32.6520 -98.5660 262° West 426 490 30,700 1,765 Climbing FlightAware ADS-B
Thu 03:39:42 PM 32.6400 -98.6590 261° West 421 484 32,000 1,976 Climbing FlightAware ADS-B
Thu 03:40:27 PM 32.6270 -98.7620 262° West 415 478 33,500 1,835 Climbing FlightAware ADS-B
Thu 03:41:07 PM 32.6160 -98.8510 262° West 413 475 34,600 1,553 Climbing FlightAware ADS-B
Thu 03:41:52 PM 32.6030 -98.9490 261° West 410 472 35,700 1,624 Climbing FlightAware ADS-B
Thu 03:42:32 PM 32.5920 -99.0350 261° West 400 460 36,900 1,500 Climbing FlightAware ADS-B
Thu 03:43:12 PM 32.5800 -99.1230 261° West 397 457 37,700 776 Climbing FlightAware ADS-B
Thu 03:43:57 PM 32.5680 -99.2230 262° West 389 448 38,000 212 Climbing FlightAware ADS-B
Thu 03:44:37 PM 32.5570 -99.3060 261° West 385 443 38,000  Level FlightAware ADS-B
Thu 03:45:17 PM 32.5460 -99.3870 261° West 387 445 38,000  Level FlightAware ADS-B
Thu 03:46:02 PM 32.5330 -99.4820 261° West 389 448 38,000  Level FlightAware ADS-B
Thu 03:46:42 PM 32.5220 -99.5650 261° West 390 449 38,000  Level FlightAware ADS-B
Thu 03:47:27 PM 32.5100 -99.6620 262° West 392 451 38,000  Level FlightAware ADS-B
Thu 03:48:07 PM 32.4980 -99.7480 261° West 393 452 38,000  Level FlightAware ADS-B
Thu 03:48:47 PM 32.4870 -99.8320 261° West 395 455 38,000  Level FlightAware ADS-B
Thu 03:49:32 PM 32.4730 -99.9270 260° West 395 455 38,000  Level FlightAware ADS-B
Thu 03:50:12 PM 32.4590 -100.0100 259° West 395 455 38,000  Level FlightAware ADS-B
Thu 03:50:57 PM 32.4430 -100.1100 259° West 396 456 38,000  Level FlightAware ADS-B
Thu 03:51:37 PM 32.4290 -100.1930 259° West 394 453 38,000  Level FlightAware ADS-B
Thu 03:52:22 PM 32.4130 -100.2900 259° West 392 451 38,000  Level FlightAware ADS-B
Thu 03:53:02 PM 32.4000 -100.3700 259° West 392 451 38,000  Level FlightAware ADS-B
Thu 03:53:42 PM 32.3850 -100.4580 259° West 392 451 38,000  Level FlightAware ADS-B
Thu 03:54:27 PM 32.3700 -100.5500 259° West 393 452 38,000  Level FlightAware ADS-B
Thu 03:55:07 PM 32.3560 -100.6340 259° West 394 453 38,000  Level FlightAware ADS-B
Thu 03:55:52 PM 32.3400 -100.7280 259° West 394 453 38,000  Level FlightAware ADS-B
Thu 03:56:42 PM 32.3230 -100.8300 259° West 394 453 38,000  Level FlightAware ADS-B
Thu 03:57:27 PM 32.3060 -100.9310 259° West 395 455 38,000  Level FlightAware ADS-B
Thu 03:58:07 PM 32.2920 -101.0140 259° West 395 455 38,000  Level FlightAware ADS-B
Thu 03:58:47 PM 32.2770 -101.1000 258° West 396 456 38,000  Level FlightAware ADS-B
Thu 03:59:27 PM 32.2620 -101.1850 258° West 395 455 38,000  Level FlightAware ADS-B
Thu 04:00:17 PM 32.2440 -101.2910 259° West 396 456 38,000  Level FlightAware ADS-B
Thu 04:00:52 PM 32.2310 -101.3660 258° West 396 456 38,000  Level FlightAware ADS-B
Thu 04:01:42 PM 32.2120 -101.4730 258° West 396 456 38,000  Level FlightAware ADS-B
Thu 04:02:22 PM 32.1990 -101.5490 259° West 395 455 38,000  Level FlightAware ADS-B
Thu 04:03:17 PM 32.1790 -101.6620 258° West 395 455 38,000  Level FlightAware ADS-B
Thu 04:03:57 PM 32.1660 -101.7340 258° West 395 455 38,000  Level FlightAware ADS-B
Thu 04:04:37 PM 32.1530 -101.8050 258° West 395 455 38,000  Level FlightAware ADS-B
Thu 04:05:17 PM 32.1400 -101.8770 258° West 395 455 38,000  Level FlightAware ADS-B
Thu 04:06:07 PM 32.1240 -101.9670 258° West 395 455 38,000  Level FlightAware ADS-B
Thu 04:06:47 PM 32.1110 -102.0390 258° West 395 455 38,000  Level FlightAware ADS-B
Thu 04:07:27 PM 32.0980 -102.1100 258° West 395 455 38,000  Level FlightAware ADS-B
Thu 04:08:07 PM 32.0850 -102.1820 258° West 395 455 38,000  Level FlightAware ADS-B
Thu 04:08:47 PM 32.0720 -102.2540 258° West 395 455 38,000  Level FlightAware ADS-B
Thu 04:09:37 PM 32.0560 -102.3430 258° West 395 455 38,000  Level FlightAware ADS-B
Thu 04:10:17 PM 32.0430 -102.4150 258° West 395 455 38,000  Level FlightAware ADS-B
Thu 04:10:57 PM 32.0300 -102.4870 258° West 395 455 38,000  Level FlightAware ADS-B
Thu 04:11:37 PM 32.0170 -102.5590 258° West 395 455 38,000  Level FlightAware ADS-B
Thu 04:12:17 PM 32.0040 -102.6300 258° West 395 455 38,000  Level FlightAware ADS-B
Thu 04:13:11 PM 31.9403 -102.9019 258° West 393 452 38,000  Level Albuquerque Center
Thu 04:14:13 PM 31.9164 -103.0289 258° West 395 455 38,000  Level Albuquerque Center
Thu 04:15:15 PM 31.8906 -103.1575 257° West 399 459 38,000  Level Albuquerque Center
Thu 04:16:17 PM 31.8758 -103.2867 262° West 402 463 38,000  Level Albuquerque Center
Thu 04:17:19 PM 31.8806 -103.4375 272° West 390 449 38,000  Level Albuquerque Center
Thu 04:18:20 PM 31.8839 -103.5625 272° West 384 442 38,000  Level Albuquerque Center
Thu 04:19:22 PM 31.8881 -103.6897 272° West 387 445 38,000  Level Albuquerque Center
Thu 04:20:24 PM 31.8944 -103.8158 273° West 386 444 38,000  Level Albuquerque Center
Thu 04:21:26 PM 31.8964 -103.9400 271° West 385 443 38,000  Level Albuquerque Center
Thu 04:22:28 PM 31.9039 -104.0689 274° West 386 444 38,000  Level Albuquerque Center
Thu 04:23:30 PM 31.9058 -104.1919 271° West 380 437 38,000  Level Albuquerque Center
Thu 04:24:32 PM 31.9100 -104.3389 272° West 376 433 38,000  Level Albuquerque Center
Thu 04:25:34 PM 31.9139 -104.4633 272° West 378 435 38,000  Level Albuquerque Center
Thu 04:26:35 PM 31.9178 -104.5864 272° West 379 436 38,000  Level Albuquerque Center
Thu 04:27:37 PM 31.9192 -104.7083 271° West 378 435 38,000  Level Albuquerque Center
Thu 04:28:39 PM 31.9236 -104.8303 272° West 376 433 38,000  Level Albuquerque Center
Thu 04:29:41 PM 31.9261 -104.9539 271° West 379 436 38,000  Level Albuquerque Center
Thu 04:30:43 PM 31.9294 -105.1025 272° West 380 437 38,000  Level Albuquerque Center
Thu 04:31:45 PM 31.9319 -105.2267 271° West 380 437 38,000  Level Albuquerque Center
Thu 04:32:47 PM 31.9339 -105.3536 271° West 389 448 38,000  Level Albuquerque Center
Thu 04:38:02 PM 31.9470 -106.0170 271° West 384 442 38,000  Level FlightAware ADS-B
Thu 04:38:47 PM 31.9480 -106.1110 271° West 384 442 38,000  Level FlightAware ADS-B
Thu 04:39:27 PM 31.9490 -106.1950 271° West 384 442 38,000  Level FlightAware ADS-B
Thu 04:40:07 PM 31.9510 -106.2780 272° West 382 440 38,000  Level FlightAware ADS-B
Thu 04:40:52 PM 31.9610 -106.3690 277° West 381 438 38,000  Level FlightAware ADS-B
Thu 04:41:32 PM 31.9700 -106.4520 277° West 382 440 38,000  Level FlightAware ADS-B
Thu 04:42:12 PM 31.9800 -106.5340 278° West 383 441 38,000  Level FlightAware ADS-B
Thu 04:42:57 PM 31.9920 -106.6260 279° West 382 440 38,000  Level FlightAware ADS-B
Thu 04:43:37 PM 32.0100 -106.7060 285° West 383 441 38,000  Level FlightAware ADS-B
Thu 04:44:22 PM 32.0340 -106.7960 287° West 383 441 38,000  Level FlightAware ADS-B
Thu 04:45:02 PM 32.0540 -106.8730 287° West 383 441 38,000  Level FlightAware ADS-B
Thu 04:45:42 PM 32.0760 -106.9530 288° West 384 442 38,000  Level FlightAware ADS-B
Thu 04:46:22 PM 32.0970 -107.0340 287° West 385 443 38,000  Level FlightAware ADS-B
Thu 04:47:17 PM 32.1240 -107.1420 286° West 384 442 38,000  Level FlightAware ADS-B
Thu 04:47:57 PM 32.1400 -107.2100 286° West 384 442 38,000  Level FlightAware ADS-B
Thu 04:48:47 PM 32.1610 -107.2960 286° West 384 442 38,000  Level FlightAware ADS-B
Thu 04:49:27 PM 32.1780 -107.3640 286° West 384 442 38,000  Level FlightAware ADS-B
Thu 04:50:07 PM 32.1940 -107.4330 285° West 384 442 38,000  Level FlightAware ADS-B
Thu 04:50:47 PM 32.2110 -107.5020 286° West 384 442 38,000  Level FlightAware ADS-B
Thu 04:51:27 PM 32.2280 -107.5700 286° West 384 442 38,000  Level FlightAware ADS-B
Thu 04:52:17 PM 32.2780 -107.7430 289° West 383 441 38,000  Level FlightAware ADS-B
Thu 04:52:52 PM 32.2920 -107.8050 285° West 383 441 38,000  Level FlightAware ADS-B
Thu 04:53:32 PM 32.3080 -107.8740 285° West 383 441 38,000  Level FlightAware ADS-B
Thu 04:54:22 PM 32.3270 -107.9600 285° West 383 441 38,000  Level FlightAware ADS-B
Thu 04:55:57 PM 32.3900 -108.1860 288° West 38,000  Level FlightAware ADS-B
Thu 04:58:07 PM 32.4610 -108.4710 287° West 396 456 38,000  Level FlightAware ADS-B
Thu 04:58:47 PM 32.4820 -108.5550 287° West 395 455 38,000  Level FlightAware ADS-B
Thu 04:59:27 PM 32.5020 -108.6380 286° West 396 456 38,000  Level FlightAware ADS-B
Thu 05:00:12 PM 32.5250 -108.7290 287° West 397 457 38,000  Level FlightAware ADS-B
Thu 05:00:52 PM 32.5460 -108.8150 286° West 398 458 38,000  Level FlightAware ADS-B
Thu 05:01:37 PM 32.5690 -108.9100 286° West 399 459 38,000  Level FlightAware ADS-B
Thu 05:02:17 PM 32.5900 -108.9950 286° West 400 460 38,000  Level FlightAware ADS-B
Thu 05:02:57 PM 32.6100 -109.0780 286° West 400 460 38,000  Level FlightAware ADS-B
Thu 05:03:42 PM 32.6330 -109.1710 286° West 399 459 38,000  Level FlightAware ADS-B
Thu 05:04:22 PM 32.6530 -109.2540 286° West 399 459 38,000  Level FlightAware ADS-B
Thu 05:05:07 PM 32.6770 -109.3530 286° West 398 458 38,000  Level FlightAware ADS-B
Thu 05:05:47 PM 32.6970 -109.4360 286° West 398 458 38,000  Level FlightAware ADS-B
Thu 05:06:27 PM 32.7160 -109.5150 286° West 398 458 38,000  Level FlightAware ADS-B
Thu 05:07:12 PM 32.7390 -109.6120 286° West 398 458 38,000  Level FlightAware ADS-B
Thu 05:07:52 PM 32.7590 -109.6960 286° West 398 458 38,000  Level FlightAware ADS-B
Thu 05:08:32 PM 32.7790 -109.7790 286° West 398 458 38,000  Level FlightAware ADS-B
Thu 05:09:17 PM 32.8020 -109.8750 286° West 400 460 38,000  Level FlightAware ADS-B
Thu 05:09:57 PM 32.8220 -109.9610 285° West 400 460 38,000  Level FlightAware ADS-B
Thu 05:10:42 PM 32.8440 -110.0540 286° West 400 460 38,000  Level FlightAware ADS-B
Thu 05:11:22 PM 32.8650 -110.1400 286° West 401 461 38,000  Level FlightAware ADS-B
Thu 05:12:07 PM 32.8870 -110.2370 285° West 401 461 38,000  Level FlightAware ADS-B
Thu 05:12:47 PM 32.9080 -110.3230 286° West 402 463 38,000  Level FlightAware ADS-B
Thu 05:13:32 PM 32.9290 -110.4160 285° West 402 463 38,000  Level FlightAware ADS-B
Thu 05:14:12 PM 32.9490 -110.5010 286° West 403 464 38,000  Level FlightAware ADS-B
Thu 05:14:57 PM 32.9720 -110.6000 286° West 403 464 38,000  Level FlightAware ADS-B
Thu 05:15:37 PM 32.9910 -110.6820 285° West 404 465 38,000  Level FlightAware ADS-B
Thu 05:16:22 PM 33.0140 -110.7820 285° West 404 465 38,000  Level FlightAware ADS-B
Thu 05:17:02 PM 33.0350 -110.8670 286° West 404 465 38,000  Level FlightAware ADS-B
Thu 05:17:42 PM 33.0600 -110.9500 290° West 403 464 38,000  Level FlightAware ADS-B
Thu 05:18:27 PM 33.0880 -111.0420 290° West 403 464 38,000  Level FlightAware ADS-B
Thu 05:19:07 PM 33.1130 -111.1250 290° West 403 464 38,000  Level FlightAware ADS-B
Thu 05:19:52 PM 33.1430 -111.2220 290° West 403 464 38,000  Level FlightAware ADS-B
Thu 05:20:32 PM 33.1680 -111.3050 290° West 404 465 38,000  Level FlightAware ADS-B
Thu 05:21:12 PM 33.1930 -111.3900 289° West 404 465 38,000  Level FlightAware ADS-B
Thu 05:21:57 PM 33.2200 -111.4820 289° West 403 464 38,000  Level FlightAware ADS-B
Thu 05:22:37 PM 33.2440 -111.5630 290° West 404 465 38,000  Level FlightAware ADS-B
Thu 05:23:22 PM 33.2720 -111.6590 289° West 404 465 38,000  Level FlightAware ADS-B
Thu 05:24:02 PM 33.2980 -111.7440 290° West 404 465 38,000  Level FlightAware ADS-B
Thu 05:24:47 PM 33.3260 -111.8410 289° West 405 466 38,000  Level FlightAware ADS-B
Thu 05:25:27 PM 33.3510 -111.9260 289° West 406 467 38,000  Level FlightAware ADS-B
Thu 05:26:07 PM 33.3760 -112.0120 289° West 406 467 38,000  Level FlightAware ADS-B
Thu 05:26:52 PM 33.4020 -112.1020 289° West 407 468 38,000  Level FlightAware ADS-B
Thu 05:27:32 PM 33.4270 -112.1880 289° West 407 468 38,000  Level FlightAware ADS-B
Thu 05:28:12 PM 33.4510 -112.2740 289° West 407 468 38,000  Level FlightAware ADS-B
Thu 05:28:57 PM 33.4800 -112.3730 289° West 407 468 38,000  Level FlightAware ADS-B
Thu 05:29:37 PM 33.5040 -112.4580 289° West 408 470 38,000  Level FlightAware ADS-B
Thu 05:30:22 PM 33.5310 -112.5520 289° West 409 471 38,000  Level FlightAware ADS-B
Thu 05:31:02 PM 33.5550 -112.6370 289° West 410 472 38,000  Level FlightAware ADS-B
Thu 05:31:42 PM 33.5780 -112.7180 289° West 411 473 38,000  Level FlightAware ADS-B
Thu 05:32:27 PM 33.6070 -112.8220 289° West 411 473 38,000  Level FlightAware ADS-B
Thu 05:33:07 PM 33.6310 -112.9080 289° West 411 473 38,000  Level FlightAware ADS-B
Thu 05:33:52 PM 33.6590 -113.0070 289° West 412 474 38,000  Level FlightAware ADS-B
Thu 05:34:27 PM 33.6770 -113.0730 288° West 412 474 38,000  Level FlightAware ADS-B
Thu 05:35:12 PM 33.7050 -113.1740 288° West 412 474 38,000  Level FlightAware ADS-B
Thu 05:35:57 PM 33.7330 -113.2740 289° West 413 475 38,000  Level FlightAware ADS-B
Thu 05:36:37 PM 33.7560 -113.3610 288° West 413 475 38,000  Level FlightAware ADS-B
Thu 05:37:22 PM 33.7830 -113.4590 288° West 414 476 38,000  Level FlightAware ADS-B
Thu 05:38:02 PM 33.8070 -113.5460 288° West 414 476 38,000  Level FlightAware ADS-B
Thu 05:38:47 PM 33.8340 -113.6450 288° West 413 475 38,000  Level FlightAware ADS-B
Thu 05:39:27 PM 33.8550 -113.7250 288° West 413 475 38,000  Level FlightAware ADS-B
Thu 05:40:02 PM 33.8720 -113.7960 286° West 414 476 38,000  Level FlightAware ADS-B
Thu 05:40:52 PM 33.8880 -113.9110 280° West 415 478 38,000  Level FlightAware ADS-B
Thu 05:41:22 PM 33.8970 -113.9790 279° West 415 478 38,000  Level FlightAware ADS-B
Thu 05:42:12 PM 33.9100 -114.0840 279° West 416 479 38,000  Level FlightAware ADS-B
Thu 05:42:57 PM 33.9230 -114.1770 280° West 416 479 38,000  Level FlightAware ADS-B
Thu 05:43:32 PM 33.9310 -114.2470 278° West 416 479 38,000  Level FlightAware ADS-B
Thu 05:44:22 PM 33.9420 -114.3450 278° West 416 479 38,000  Level FlightAware ADS-B
Thu 05:45:02 PM 33.9510 -114.4230 278° West 416 479 38,000  Level FlightAware ADS-B
Thu 05:45:42 PM 33.9600 -114.5010 278° West 416 479 38,000  Level FlightAware ADS-B
Thu 05:46:22 PM 33.9690 -114.5790 278° West 416 479 38,000  Level FlightAware ADS-B
Thu 05:47:02 PM 33.9780 -114.6580 278° West 416 479 38,000  Level FlightAware ADS-B
Thu 05:47:52 PM 33.9900 -114.7550 279° West 416 479 38,000  Level FlightAware ADS-B
Thu 05:48:32 PM 33.9990 -114.8330 278° West 416 479 38,000  Level FlightAware ADS-B
Thu 05:49:12 PM 34.0080 -114.9120 278° West 416 479 38,000  Level FlightAware ADS-B
Thu 05:49:52 PM 34.0170 -114.9900 278° West 416 479 38,000  Level FlightAware ADS-B
Thu 05:50:32 PM 34.0260 -115.0680 278° West 416 479 38,000  Level FlightAware ADS-B
Thu 05:51:22 PM 34.0380 -115.1660 278° West 416 479 38,000  Level FlightAware ADS-B
Thu 05:52:02 PM 34.0470 -115.2440 278° West 416 479 38,000  Level FlightAware ADS-B
Thu 05:52:42 PM 34.0560 -115.3220 278° West 416 479 38,000 -4,941 Level FlightAware ADS-B
Thu 05:53:27 PM 34.1070 -115.6960 279° West 445 512 31,000 -4,200 Descending FlightAware ADS-B
Thu 05:54:22 PM 34.1060 -115.8350 270° West 448 516 31,000  Level FlightAware ADS-B
Thu 05:55:07 PM 34.0910 -115.9430 261° West 450 518 31,000  Level FlightAware ADS-B
Thu 05:55:47 PM 34.0760 -116.0440 260° West 450 518 31,000  Level FlightAware ADS-B
Thu 05:56:27 PM 34.0610 -116.1380 259° West 450 518 31,000 -141 Level FlightAware ADS-B
Thu 05:57:12 PM 34.0430 -116.2510 259° West 442 509 30,800 -1,129 Descending FlightAware ADS-B
Thu 05:57:52 PM 34.0280 -116.3480 259° West 433 498 29,400 -2,175 Descending FlightAware ADS-B
Thu 05:58:32 PM 34.0140 -116.4410 260° West 426 490 27,900 -2,188 Descending FlightAware ADS-B
Thu 05:59:17 PM 34.0020 -116.5460 262° West 418 481 26,300 -2,188 Descending FlightAware ADS-B
Thu 05:59:57 PM 33.9940 -116.6360 264° West 411 473 24,800 -2,259 Descending FlightAware ADS-B
Thu 06:00:42 PM 33.9850 -116.7410 264° West 402 463 23,100 -2,188 Descending FlightAware ADS-B
Thu 06:01:22 PM 33.9780 -116.8290 265° West 395 455 21,700 -2,175 Descending FlightAware ADS-B
Thu 06:02:02 PM 33.9700 -116.9160 264° West 389 448 20,200 -2,259 Descending FlightAware ADS-B
Thu 06:02:47 PM 33.9620 -117.0110 264° West 383 441 18,500 -2,118 Descending FlightAware ADS-B
Thu 06:03:27 PM 33.9540 -117.0940 263° West 380 437 17,200 -1,275 Descending FlightAware ADS-B
Thu 06:04:07 PM 33.9470 -117.1770 264° West 359 413 16,800 -1,129 Descending FlightAware ADS-B
Thu 06:04:52 PM 33.9390 -117.2660 264° West 347 399 15,600 -1,694 Descending FlightAware ADS-B
Thu 06:05:32 PM 33.9320 -117.3390 263° West 348 400 14,400 -1,714 Descending FlightAware ADS-B
Thu 06:06:02 PM 33.9350 -117.3970 274° West 343 395 13,600 -1,543 Descending FlightAware ADS-B
Thu 06:06:42 PM 33.9590 -117.4690 292° West 342 394 12,600 -1,624 Descending FlightAware ADS-B
Thu 06:07:27 PM 33.9880 -117.5490 294° West 348 400 11,300 -1,482 Descending FlightAware ADS-B
Thu 06:08:07 PM 34.0070 -117.6230 287° West 346 398 10,500 -1,200 Descending FlightAware ADS-B
Thu 06:08:37 PM 34.0040 -117.6800 266° West 342 394 9,900 -655 Descending FlightAware ADS-B
Thu 06:09:02 PM 33.9990 -117.7230 262° West 316 364 9,900 -327 Level FlightAware ADS-B
Thu 06:09:32 PM 33.9940 -117.7740 263° West 296 341 9,600 -982 Descending FlightAware ADS-B
Thu 06:09:57 PM 33.9890 -117.8170 262° West 295 339 9,000 -1,418 Descending FlightAware ADS-B
Thu 06:10:27 PM 33.9840 -117.8650 263° West 292 336 8,300 -1,333 Descending FlightAware ADS-B
Thu 06:10:42 PM 33.9820 -117.8880 264° West 290 334 8,000 -1,200 Descending FlightAware ADS-B
Thu 06:11:07 PM 33.9780 -117.9290 263° West 286 329 7,500 -1,091 Descending FlightAware ADS-B
Thu 06:11:37 PM 33.9730 -117.9760 263° West 268 308 7,000 -1,200 Descending FlightAware ADS-B
Thu 06:12:02 PM 33.9700 -118.0090 264° West 254 292 6,400 -1,500 Descending FlightAware ADS-B
Thu 06:12:17 PM 33.9670 -118.0320 261° West 255 293 6,000 -1,867 Descending FlightAware ADS-B
Thu 06:12:47 PM 33.9630 -118.0750 264° West 253 291 5,000 -1,636 Descending FlightAware ADS-B
Thu 06:13:12 PM 33.9590 -118.1080 262° West 245 282 4,500 -1,200 Descending FlightAware ADS-B
Thu 06:13:42 PM 33.9550 -118.1470 263° West 230 265 3,900 -1,300 Descending FlightAware ADS-B
Thu 06:14:12 PM 33.9510 -118.1840 263° West 219 252 3,200 -1,200 Descending FlightAware ADS-B
Thu 06:14:27 PM 33.9500 -118.1990 265° West 210 242 3,000 -1,050 Descending FlightAware ADS-B
Thu 06:14:52 PM 33.9470 -118.2290 263° West 196 226 2,500 -982 Descending FlightAware ADS-B
Thu 06:15:22 PM 33.9430 -118.2600 261° West 182 209 2,100 -655 Descending FlightAware ADS-B
Thu 06:15:47 PM 33.9420 -118.2740 265° West 175 201 1,900 -720 Descending FlightAware ADS-B
Thu 06:16:12 PM 33.9400 -118.2970 264° West 161 185 1,500 -900 Descending FlightAware ADS-B
Thu 06:16:47 PM 33.9360 -118.3260 261° West 136 157 1,000 -764 Descending FlightAware ADS-B
Thu 06:17:07 PM 33.9350 -118.3400 265° West 124 143 800 -600 Descending FlightAware ADS-B
Thu 06:17:27 PM 33.9330 -118.3540 260° West 120 138 600 -600 Descending FlightAware ADS-B
Thu 06:17:57 PM 33.9310 -118.3730 263° West 120 138 300 -545 Descending FlightAware ADS-B
Thu 06:18:22 PM 33.9300 -118.3880 265° West 116 133 100 -240 Descending FlightAware ADS-B
Thu 06:18:47 PM 33.9280 -118.4030 261° West 116 133 100  Level FlightAware ADS-B

Login

Don't have an account? Register now (free) for customized features, flight alerts, and more!